createdAt,value
2022-10-05T00:02:33.772Z,5.63
2022-10-05T00:05:36.094Z,7.18
2022-10-05T00:08:38.377Z,7.80
2022-10-05T00:11:40.224Z,8.27
2022-10-05T00:14:42.742Z,5.47
2022-10-05T00:17:44.912Z,7.13
2022-10-05T00:20:48.537Z,7.57
2022-10-05T00:23:50.934Z,8.65
2022-10-05T00:26:57.066Z,6.70
2022-10-05T00:30:07.849Z,6.40
2022-10-05T00:33:09.711Z,8.27
2022-10-05T00:36:11.812Z,8.02
2022-10-05T00:39:13.696Z,7.72
2022-10-05T00:42:26.156Z,7.32
2022-10-05T00:45:35.550Z,7.13
2022-10-05T00:48:58.183Z,7.70
2022-10-05T00:52:37.429Z,7.30
2022-10-05T00:55:59.263Z,9.80
2022-10-05T00:59:15.994Z,7.82
2022-10-05T01:02:36.962Z,7.57
2022-10-05T01:06:08.409Z,9.88
2022-10-05T01:09:42.457Z,8.73
2022-10-05T01:16:07.336Z,8.13
2022-10-05T01:19:50.641Z,7.20
2022-10-05T01:22:58.296Z,10.30
2022-10-05T01:26:33.714Z,7.32
2022-10-05T01:29:46.972Z,9.32
2022-10-05T01:33:00.522Z,8.85
2022-10-05T01:39:23.855Z,7.85
2022-10-05T01:42:31.443Z,10.65
2022-10-05T01:45:59.620Z,7.95
2022-10-05T01:49:22.369Z,8.23
2022-10-05T01:52:32.443Z,9.77
2022-10-05T01:55:49.010Z,9.48
2022-10-05T01:59:19.003Z,10.95
2022-10-05T02:02:24.182Z,8.90
2022-10-05T02:06:12.454Z,8.43
2022-10-05T02:09:37.896Z,13.32
2022-10-05T02:12:40.291Z,11.70
2022-10-05T02:16:25.476Z,10.17
2022-10-05T02:19:41.966Z,14.70
2022-10-05T02:22:50.693Z,10.75
2022-10-05T02:25:54.625Z,11.68
2022-10-05T02:29:01.234Z,13.10
2022-10-05T02:32:21.784Z,12.45
2022-10-05T02:35:23.690Z,15.77
2022-10-05T02:39:07.258Z,16.27
2022-10-05T02:42:32.672Z,17.27
2022-10-05T02:45:52.665Z,14.10
2022-10-05T02:49:31.946Z,16.02
2022-10-05T02:52:57.471Z,15.20
2022-10-05T02:56:28.255Z,16.48
2022-10-05T02:59:36.027Z,15.85
2022-10-05T03:03:04.162Z,12.60
2022-10-05T03:06:17.458Z,10.63
2022-10-05T03:09:22.910Z,12.20
2022-10-05T03:12:30.142Z,12.70
2022-10-05T03:15:43.693Z,9.85
2022-10-05T03:22:06.247Z,11.43
2022-10-05T03:25:45.615Z,11.63
2022-10-05T03:29:09.405Z,10.20
2022-10-05T03:35:49.335Z,13.38
2022-10-05T03:39:07.020Z,11.48
2022-10-05T03:42:41.592Z,12.23
2022-10-05T03:45:57.540Z,11.32
2022-10-05T03:49:20.034Z,11.73
2022-10-05T03:52:30.563Z,16.02
2022-10-05T03:55:47.133Z,12.85
2022-10-05T03:59:00.583Z,16.15
2022-10-05T04:02:31.124Z,15.30
2022-10-05T04:05:45.643Z,15.10
2022-10-05T04:08:52.115Z,11.50
2022-10-05T04:12:16.365Z,12.70
2022-10-05T04:15:50.095Z,13.77
2022-10-05T04:18:59.782Z,13.57
2022-10-05T04:22:17.536Z,12.45
2022-10-05T04:25:32.331Z,14.10
2022-10-05T04:28:41.158Z,13.80
2022-10-05T04:31:46.289Z,17.20
2022-10-05T04:35:11.439Z,12.95
2022-10-05T04:38:22.307Z,14.77
2022-10-05T04:42:02.664Z,14.32
2022-10-05T04:45:24.700Z,14.35
2022-10-05T04:48:29.238Z,15.40
2022-10-05T04:51:51.246Z,14.18
2022-10-05T04:55:01.600Z,11.70
2022-10-05T04:58:42.052Z,12.38
2022-10-05T05:01:56.722Z,11.57
2022-10-05T05:05:17.171Z,11.65
2022-10-05T05:08:21.803Z,10.75
2022-10-05T05:12:08.396Z,17.48
2022-10-05T05:16:00.895Z,11.95
2022-10-05T05:19:14.552Z,18.27
2022-10-05T05:25:55.270Z,20.13
2022-10-05T05:29:41.975Z,19.67
2022-10-05T05:33:10.394Z,23.23
2022-10-05T05:57:13.627Z,10.05
2022-10-05T06:00:15.584Z,8.23
2022-10-05T06:03:44.975Z,9.13
2022-10-05T06:06:52.646Z,7.57
2022-10-05T06:10:26.379Z,7.63
2022-10-05T06:13:34.500Z,7.47
2022-10-05T06:16:42.750Z,6.57
2022-10-05T06:19:46.691Z,6.75
2022-10-05T06:22:50.844Z,8.75
2022-10-05T06:26:26.295Z,7.63
2022-10-05T06:29:45.262Z,7.45
2022-10-05T06:33:12.957Z,7.90
2022-10-05T06:36:20.256Z,12.45
2022-10-05T06:39:40.184Z,8.35
2022-10-05T06:43:14.615Z,9.52
2022-10-05T06:46:32.191Z,8.48
2022-10-05T06:49:37.020Z,9.02
2022-10-05T06:52:50.813Z,6.38
2022-10-05T06:56:15.336Z,6.43
2022-10-05T06:59:35.339Z,8.05
2022-10-05T07:02:58.418Z,7.82
2022-10-05T07:06:10.634Z,6.93
2022-10-05T07:09:30.721Z,9.07
2022-10-05T07:12:38.479Z,9.55
2022-10-05T07:16:01.666Z,7.82
2022-10-05T07:19:15.594Z,10.18
2022-10-05T07:22:31.752Z,10.00
2022-10-05T07:25:43.810Z,10.77
2022-10-05T07:29:10.916Z,7.50
2022-10-05T07:32:38.768Z,10.05
2022-10-05T07:36:19.060Z,7.10
2022-10-05T07:39:59.137Z,5.30
2022-10-05T07:43:25.758Z,6.22
2022-10-05T07:46:45.436Z,5.65
2022-10-05T07:49:52.109Z,14.60
2022-10-05T07:53:40.487Z,4.40
2022-10-05T07:56:49.866Z,5.10
2022-10-05T07:59:58.031Z,4.85
2022-10-05T08:03:09.046Z,5.00
2022-10-05T08:06:29.698Z,5.60
2022-10-05T08:10:16.510Z,7.60
2022-10-05T08:13:45.930Z,7.10
2022-10-05T08:16:52.142Z,3.80
2022-10-05T08:20:06.028Z,7.05
2022-10-05T08:23:30.180Z,5.85
2022-10-05T08:26:44.064Z,6.00
2022-10-05T08:30:05.425Z,5.30
2022-10-05T08:33:15.910Z,6.50
2022-10-05T08:36:27.534Z,5.40
2022-10-05T08:39:36.549Z,5.30
2022-10-05T08:43:17.365Z,8.88
2022-10-05T08:46:47.247Z,5.00
2022-10-05T08:50:27.980Z,7.90
2022-10-05T08:53:38.888Z,7.13
2022-10-05T08:56:52.805Z,4.07
2022-10-05T09:00:10.723Z,4.47
2022-10-05T09:03:18.509Z,6.88
2022-10-05T09:06:23.268Z,9.10
2022-10-05T09:09:27.845Z,5.32
2022-10-05T09:12:52.233Z,5.53
2022-10-05T09:16:24.869Z,5.88
2022-10-05T09:19:32.657Z,5.25
2022-10-05T09:22:58.769Z,6.30
2022-10-05T09:26:27.672Z,4.30
2022-10-05T09:29:44.670Z,4.35
2022-10-05T09:33:01.611Z,9.48
2022-10-05T09:36:18.453Z,4.53
2022-10-05T09:39:41.507Z,4.70
2022-10-05T09:43:18.469Z,4.10
2022-10-05T09:46:42.179Z,6.53
2022-10-05T09:53:09.962Z,9.70
2022-10-05T09:56:49.849Z,6.43
2022-10-05T10:00:09.163Z,5.28
2022-10-05T10:03:47.038Z,5.13
2022-10-05T10:07:21.180Z,6.13
2022-10-05T10:11:04.861Z,3.38
2022-10-05T10:14:41.920Z,6.38
2022-10-05T10:17:52.150Z,9.05
2022-10-05T10:21:26.881Z,12.40
2022-10-05T10:24:58.244Z,4.00
2022-10-05T10:28:03.053Z,2.90
2022-10-05T10:31:38.215Z,3.15
2022-10-05T10:35:31.121Z,6.43
2022-10-05T10:39:06.223Z,6.80
2022-10-05T10:42:28.878Z,2.85
2022-10-05T10:45:48.169Z,6.10
2022-10-05T10:48:55.673Z,3.58
2022-10-05T10:52:17.744Z,3.63
2022-10-05T10:55:35.377Z,4.75
2022-10-05T10:58:52.575Z,2.88
2022-10-05T11:02:09.106Z,6.75
2022-10-05T11:05:25.488Z,5.20
2022-10-05T11:08:27.540Z,2.00
2022-10-05T11:11:36.292Z,7.20
2022-10-05T11:15:15.702Z,3.00
2022-10-05T11:18:50.001Z,4.07
2022-10-05T11:22:13.910Z,4.40
2022-10-05T11:25:42.870Z,3.25
2022-10-05T11:29:06.405Z,3.88
2022-10-05T11:32:34.422Z,6.30
2022-10-05T11:35:46.567Z,6.45
2022-10-05T11:39:14.635Z,6.15
2022-10-05T11:42:16.440Z,7.32
2022-10-05T11:45:45.300Z,4.05
2022-10-05T11:49:04.921Z,4.32
2022-10-05T11:52:22.910Z,3.22
2022-10-05T11:55:30.489Z,4.60
2022-10-05T11:59:01.463Z,4.72
2022-10-05T12:02:28.718Z,4.80
2022-10-05T12:05:49.286Z,5.15
2022-10-05T12:09:05.817Z,4.82
2022-10-05T12:12:27.183Z,7.55
2022-10-05T12:15:58.802Z,4.68
2022-10-05T12:19:04.773Z,2.80
2022-10-05T12:22:18.145Z,3.22
2022-10-05T12:25:21.596Z,3.60
2022-10-05T12:28:35.096Z,3.88
2022-10-05T12:35:02.343Z,4.00
2022-10-05T12:38:16.155Z,8.55
2022-10-05T12:41:41.063Z,6.28
2022-10-05T12:45:09.017Z,2.78
2022-10-05T12:48:43.358Z,5.15
2022-10-05T12:51:58.460Z,7.30
2022-10-05T12:55:03.179Z,6.80
2022-10-05T12:58:17.418Z,6.25
2022-10-05T13:01:25.357Z,11.00
2022-10-05T13:04:32.841Z,10.32
2022-10-05T13:07:34.836Z,5.35
2022-10-05T13:10:45.542Z,6.00
2022-10-05T13:13:57.684Z,4.78
2022-10-05T13:17:14.777Z,4.85
2022-10-05T13:20:35.310Z,5.07
2022-10-05T13:24:01.514Z,4.93
2022-10-05T13:27:13.797Z,6.55
2022-10-05T13:30:18.886Z,5.53
2022-10-05T13:33:58.549Z,7.32
2022-10-05T13:37:06.372Z,6.07
2022-10-05T13:40:36.038Z,11.05
2022-10-05T13:44:03.963Z,6.63
2022-10-05T13:47:16.885Z,2.97
2022-10-05T13:50:33.401Z,4.50
2022-10-05T13:53:41.777Z,5.20
2022-10-05T13:56:51.522Z,15.65
2022-10-05T14:00:01.163Z,8.48
2022-10-05T14:03:03.106Z,6.53
2022-10-05T14:06:30.338Z,3.95
2022-10-05T14:09:35.280Z,9.52
2022-10-05T14:12:41.834Z,3.55
2022-10-05T14:16:04.505Z,5.90
2022-10-05T14:19:06.555Z,4.27
2022-10-05T14:22:22.782Z,5.70
2022-10-05T14:25:25.015Z,4.65
2022-10-05T14:28:35.152Z,5.10
2022-10-05T14:31:37.457Z,6.45
2022-10-05T14:35:01.333Z,6.55
2022-10-05T14:38:17.412Z,9.38
2022-10-05T14:41:21.472Z,10.57
2022-10-05T14:48:16.577Z,9.75
2022-10-05T14:51:31.982Z,16.00
2022-10-05T14:54:43.858Z,9.63
2022-10-05T14:57:57.367Z,8.80
2022-10-05T15:04:27.097Z,9.32
2022-10-05T15:07:37.598Z,7.40
2022-10-05T15:10:50.757Z,7.90
2022-10-05T15:13:53.635Z,5.32
2022-10-05T15:17:01.787Z,10.32
2022-10-05T15:20:24.552Z,6.20
2022-10-05T15:23:33.353Z,7.18
2022-10-05T15:26:47.100Z,5.07
2022-10-05T15:30:17.986Z,7.35
2022-10-05T15:33:38.373Z,6.35
2022-10-05T15:36:48.071Z,11.27
2022-10-05T15:39:55.588Z,5.78
2022-10-05T15:43:04.986Z,6.40
2022-10-05T15:46:17.906Z,4.63
2022-10-05T15:49:44.577Z,7.50
2022-10-05T15:53:23.197Z,8.75
2022-10-05T15:56:39.050Z,5.90
2022-10-05T15:59:40.860Z,8.40
2022-10-05T16:03:05.306Z,9.75
2022-10-05T16:06:34.390Z,8.75
2022-10-05T16:09:42.884Z,8.75
2022-10-05T16:13:10.708Z,7.22
2022-10-05T16:16:32.804Z,7.70
2022-10-05T16:19:46.398Z,4.97
2022-10-05T16:25:54.531Z,6.93
2022-10-05T16:29:17.426Z,5.32
2022-10-05T16:32:30.292Z,10.67
2022-10-05T16:36:03.015Z,12.13
2022-10-05T16:39:23.534Z,8.55
2022-10-05T16:42:55.167Z,12.55
2022-10-05T16:46:03.233Z,6.57
2022-10-05T16:49:14.304Z,9.15
2022-10-05T16:52:20.399Z,7.68
2022-10-05T16:55:34.522Z,6.63
2022-10-05T16:59:07.400Z,6.78
2022-10-05T17:02:18.564Z,13.90
2022-10-05T17:05:32.236Z,8.05
2022-10-05T17:08:46.246Z,9.65
2022-10-05T17:12:12.936Z,7.63
2022-10-05T17:15:55.904Z,7.28
2022-10-05T17:19:19.800Z,8.93
2022-10-05T17:22:37.613Z,16.70
2022-10-05T17:25:54.887Z,10.90
2022-10-05T17:29:28.079Z,12.82
2022-10-05T17:32:39.870Z,12.83
2022-10-05T17:35:53.521Z,16.20
2022-10-05T17:39:16.622Z,14.75
2022-10-05T17:42:48.674Z,12.30
2022-10-05T17:45:53.957Z,16.15
2022-10-05T17:49:02.226Z,11.13
2022-10-05T17:52:46.246Z,9.20
2022-10-05T17:56:03.857Z,8.63
2022-10-05T17:59:09.205Z,16.70
2022-10-05T18:02:21.622Z,8.20
2022-10-05T18:05:31.203Z,9.57
2022-10-05T18:08:40.958Z,11.88
2022-10-05T18:11:44.971Z,9.52
2022-10-05T18:14:55.775Z,9.70
2022-10-05T18:18:32.239Z,11.60
2022-10-05T18:21:37.235Z,8.55
2022-10-05T18:24:44.809Z,8.55
2022-10-05T18:28:18.921Z,9.90
2022-10-05T18:31:45.303Z,10.02
2022-10-05T18:35:09.148Z,15.20
2022-10-05T18:38:38.474Z,11.77
2022-10-05T18:42:00.564Z,23.38
2022-10-05T18:45:17.646Z,19.90
2022-10-05T18:48:50.764Z,23.95
2022-10-05T18:52:13.513Z,25.33
2022-10-05T18:55:26.128Z,24.23
2022-10-05T18:58:52.011Z,25.27
2022-10-05T19:02:11.352Z,22.90
2022-10-05T19:05:46.841Z,19.17
2022-10-05T19:09:01.421Z,20.35
2022-10-05T19:12:36.930Z,19.00
2022-10-05T19:15:46.942Z,19.55
2022-10-05T19:19:34.150Z,16.00
2022-10-05T19:22:54.475Z,18.65
2022-10-05T19:26:21.841Z,14.32
2022-10-05T19:29:42.696Z,19.98
2022-10-05T19:32:58.322Z,18.13
2022-10-05T19:36:11.759Z,21.42
2022-10-05T19:39:42.890Z,20.30
2022-10-05T19:43:15.781Z,27.15
2022-10-05T19:46:39.925Z,30.45
2022-10-05T19:49:57.352Z,28.55
2022-10-05T19:53:08.413Z,27.30
2022-10-05T19:56:46.135Z,14.60
2022-10-05T19:59:49.410Z,9.52
2022-10-05T20:05:59.643Z,14.77
2022-10-05T20:09:19.619Z,13.07
2022-10-05T20:12:23.187Z,11.95
2022-10-05T20:15:50.395Z,11.50
2022-10-05T20:19:10.943Z,13.75
2022-10-05T20:22:24.749Z,11.70
2022-10-05T20:25:28.741Z,14.88
2022-10-05T20:28:31.668Z,15.35
2022-10-05T20:31:33.857Z,13.57
2022-10-05T20:34:46.822Z,13.15
2022-10-05T20:37:50.024Z,13.15
2022-10-05T20:40:51.928Z,17.30
2022-10-05T20:43:55.839Z,13.13
2022-10-05T20:47:01.483Z,15.38
2022-10-05T20:50:09.205Z,16.35
2022-10-05T20:53:12.030Z,12.73
2022-10-05T20:56:14.441Z,12.95
2022-10-05T20:59:17.217Z,10.80
2022-10-05T21:02:19.648Z,12.38
2022-10-05T21:05:21.670Z,11.90
2022-10-05T21:08:25.340Z,11.20
2022-10-05T21:11:28.873Z,10.98
2022-10-05T21:17:36.431Z,11.38
2022-10-05T21:20:38.726Z,10.50
2022-10-05T21:23:40.961Z,9.73
2022-10-05T21:26:44.262Z,17.70
2022-10-05T21:32:48.032Z,9.00
2022-10-05T21:35:49.928Z,11.23
2022-10-05T21:38:53.579Z,8.98
2022-10-05T21:41:55.499Z,8.95
2022-10-05T21:44:57.319Z,18.75
2022-10-05T21:47:59.361Z,11.25
2022-10-05T21:51:02.257Z,9.27
2022-10-05T21:54:11.347Z,12.77
2022-10-05T21:57:13.490Z,10.48
2022-10-05T22:00:16.615Z,9.80
2022-10-05T22:03:18.605Z,11.27
2022-10-05T22:06:20.505Z,11.40
2022-10-05T22:09:22.339Z,12.25
2022-10-05T22:12:26.435Z,13.90
2022-10-05T22:15:30.023Z,13.35
2022-10-05T22:18:32.171Z,10.50
2022-10-05T22:21:38.231Z,12.55
2022-10-05T22:24:40.259Z,12.88
2022-10-05T22:27:43.481Z,13.52
2022-10-05T22:30:45.536Z,11.45
2022-10-05T22:33:47.580Z,12.10
2022-10-05T22:36:49.960Z,14.85
2022-10-05T22:39:51.945Z,15.48
2022-10-05T22:42:53.812Z,20.35
2022-10-05T22:45:56.236Z,16.75
2022-10-05T22:48:58.136Z,18.90
2022-10-05T22:51:59.980Z,16.92
2022-10-05T22:55:02.175Z,15.15
2022-10-05T22:58:04.075Z,15.93
2022-10-05T23:01:08.606Z,29.00
2022-10-05T23:04:11.887Z,13.95
2022-10-05T23:07:13.854Z,20.40
2022-10-05T23:10:17.906Z,17.27
2022-10-05T23:13:19.792Z,14.98
2022-10-05T23:16:23.681Z,13.63
2022-10-05T23:19:25.621Z,12.60
2022-10-05T23:22:27.571Z,12.88
2022-10-05T23:25:29.420Z,12.05
2022-10-05T23:28:31.858Z,15.95
2022-10-05T23:31:34.548Z,14.57
2022-10-05T23:34:36.643Z,13.25
2022-10-05T23:37:43.923Z,11.07
2022-10-05T23:40:47.598Z,10.10
2022-10-05T23:43:49.830Z,14.63
2022-10-05T23:46:51.684Z,11.63
2022-10-05T23:49:53.570Z,13.25
2022-10-05T23:52:55.406Z,11.48
2022-10-05T23:55:57.500Z,12.05
2022-10-05T23:59:00.652Z,10.93
